Time;durP1;ratioP1;P1;durP2;ratioP2;P2;SDS_P1;SDS_P2;PMS_P1;PMS_P2;Temp;Humidity;BMP_temperature;BMP_pressure;BME280_temperature;BME280_humidity;BME280_pressure;Samples;Min_cycle;Max_cycle;Signal;HPM_P1;HPM_P2
2022/08/27 00:01:00;;;;;;;11.73;8.70;;;21.20;33.20;;;;;;5081543;28;20476;-72
2022/08/27 00:03:27;;;;;;;11.83;9.40;;;21.20;33.30;;;;;;5079407;28;20573;-75
2022/08/27 00:05:54;;;;;;;11.23;8.90;;;21.20;33.30;;;;;;5084391;28;20468;-75
2022/08/27 00:08:21;;;;;;;13.07;9.93;;;21.20;33.50;;;;;;5088618;28;20996;-71
2022/08/27 00:10:48;;;;;;;13.10;9.47;;;21.10;33.70;;;;;;5084444;28;20517;-72
2022/08/27 00:13:15;;;;;;;10.93;9.30;;;21.10;33.90;;;;;;5081400;28;20517;-71
2022/08/27 00:15:44;;;;;;;13.97;9.47;;;21.10;34.00;;;;;;5091193;28;20452;-73
2022/08/27 00:18:12;;;;;;;17.33;10.43;;;21.00;33.90;;;;;;5082005;28;20457;-71
2022/08/27 00:20:39;;;;;;;14.77;12.50;;;21.00;33.90;;;;;;5085571;28;20468;-71
2022/08/27 00:23:06;;;;;;;17.40;11.90;;;21.00;34.20;;;;;;5079911;28;20485;-74
2022/08/27 00:25:33;;;;;;;14.90;11.43;;;21.00;34.10;;;;;;5089321;28;20480;-70
2022/08/27 00:28:00;;;;;;;14.47;11.70;;;21.10;34.00;;;;;;5086947;28;20460;-71
2022/08/27 00:30:27;;;;;;;17.03;13.87;;;21.00;34.00;;;;;;5089107;28;20533;-71
2022/08/27 00:32:56;;;;;;;12.67;11.27;;;21.00;34.30;;;;;;5084123;28;20460;-71
2022/08/27 00:35:23;;;;;;;15.60;11.30;;;21.00;34.60;;;;;;5084876;28;20481;-73
2022/08/27 00:37:50;;;;;;;14.50;11.00;;;21.00;34.90;;;;;;5090965;28;20458;-71
2022/08/27 00:40:20;;;;;;;15.80;11.57;;;21.00;35.10;;;;;;5084033;28;20819;-74
2022/08/27 00:42:48;;;;;;;13.27;10.37;;;21.00;35.00;;;;;;5080251;28;21300;-72
2022/08/27 00:45:18;;;;;;;11.83;10.03;;;20.90;35.20;;;;;;5084147;28;20472;-73
2022/08/27 00:47:48;;;;;;;13.33;10.17;;;20.90;35.30;;;;;;5085235;28;20459;-71
2022/08/27 00:50:20;;;;;;;13.53;10.47;;;20.90;35.50;;;;;;5084146;28;20475;-71
2022/08/27 00:52:52;;;;;;;18.17;10.37;;;20.90;35.50;;;;;;5081129;28;20474;-71
2022/08/27 00:55:22;;;;;;;11.30;8.87;;;20.80;35.70;;;;;;5079002;28;20883;-72
2022/08/27 00:57:56;;;;;;;12.27;9.17;;;20.90;35.90;;;;;;5087747;28;20787;-73
2022/08/27 01:00:23;;;;;;;11.10;9.23;;;20.80;36.50;;;;;;5081984;28;20491;-70
2022/08/27 01:02:50;;;;;;;13.97;9.47;;;20.90;36.70;;;;;;5085867;28;20456;-71
2022/08/27 01:05:21;;;;;;;10.70;8.90;;;20.80;36.80;;;;;;5083872;28;20501;-70
2022/08/27 01:07:51;;;;;;;11.00;9.00;;;20.80;37.10;;;;;;5085746;28;20964;-72
2022/08/27 01:10:22;;;;;;;12.20;9.30;;;20.70;37.20;;;;;;5086430;28;20469;-70
2022/08/27 01:12:51;;;;;;;12.27;9.03;;;20.70;37.40;;;;;;5086578;28;20454;-73
2022/08/27 01:15:19;;;;;;;13.50;9.00;;;20.70;37.60;;;;;;5014747;22;20639;-63
2022/08/27 01:17:47;;;;;;;12.43;9.10;;;20.70;37.80;;;;;;4981832;28;20492;-65
2022/08/27 01:20:19;;;;;;;12.90;9.67;;;20.70;37.90;;;;;;4989812;28;20468;-64
2022/08/27 01:22:56;;;;;;;12.87;10.27;;;20.70;37.80;;;;;;5013199;28;20471;-64
2022/08/27 01:25:26;;;;;;;11.97;8.40;;;20.70;38.00;;;;;;5037598;28;20492;-66
2022/08/27 01:27:57;;;;;;;11.67;9.20;;;20.60;37.90;;;;;;4982899;28;20468;-64
2022/08/27 01:30:24;;;;;;;15.30;9.30;;;20.60;38.00;;;;;;4976132;28;20552;-66
2022/08/27 01:32:52;;;;;;;11.57;8.50;;;20.60;38.00;;;;;;4988542;28;20490;-66
2022/08/27 01:35:22;;;;;;;10.50;8.90;;;20.60;37.90;;;;;;4978409;28;20493;-67
2022/08/27 01:37:51;;;;;;;15.20;10.57;;;20.60;38.00;;;;;;4977917;28;20522;-64
2022/08/27 01:40:19;;;;;;;13.37;8.77;;;20.60;38.00;;;;;;4983305;28;20461;-63
2022/08/27 01:42:49;;;;;;;11.03;8.53;;;20.60;37.90;;;;;;4979783;28;20497;-65
2022/08/27 01:45:19;;;;;;;11.70;8.63;;;20.60;37.90;;;;;;4977562;28;20847;-68
2022/08/27 01:47:47;;;;;;;11.90;8.80;;;20.60;38.00;;;;;;4979673;28;20554;-66
2022/08/27 01:50:17;;;;;;;13.20;9.33;;;20.60;37.80;;;;;;4982272;28;20493;-67
2022/08/27 01:52:45;;;;;;;10.60;8.40;;;20.60;37.90;;;;;;4975952;28;20518;-65
2022/08/27 01:55:15;;;;;;;14.70;9.87;;;20.60;38.00;;;;;;4978789;28;20489;-66
2022/08/27 01:57:43;;;;;;;11.80;9.50;;;20.50;37.90;;;;;;4979755;28;20548;-64
2022/08/27 02:00:15;;;;;;;11.33;9.83;;;20.50;38.00;;;;;;4980351;27;21962;-65
2022/08/27 02:02:43;;;;;;;10.47;8.57;;;20.50;38.10;;;;;;4978236;28;20461;-66
2022/08/27 02:05:11;;;;;;;11.10;9.60;;;20.50;38.20;;;;;;4978640;28;20496;-64
2022/08/27 02:07:38;;;;;;;16.33;10.40;;;20.40;38.40;;;;;;4987430;28;20462;-66
2022/08/27 02:10:07;;;;;;;13.47;9.57;;;20.40;38.30;;;;;;4994950;28;20472;-65
2022/08/27 02:12:34;;;;;;;18.00;9.80;;;20.40;38.30;;;;;;4984925;28;21235;-67
2022/08/27 02:15:01;;;;;;;12.23;9.63;;;20.40;38.10;;;;;;4992731;28;20480;-68
2022/08/27 02:17:30;;;;;;;10.00;8.10;;;20.40;38.10;;;;;;5005765;28;20508;-66
2022/08/27 02:19:57;;;;;;;22.80;9.03;;;20.30;38.20;;;;;;5018672;28;20469;-66
2022/08/27 02:22:24;;;;;;;15.77;9.30;;;20.30;38.20;;;;;;4981764;28;20546;-66
2022/08/27 02:24:52;;;;;;;13.60;9.20;;;20.30;38.40;;;;;;4992949;28;20495;-64
2022/08/27 02:27:20;;;;;;;11.10;9.80;;;20.30;38.40;;;;;;5001459;28;21024;-65
2022/08/27 02:29:47;;;;;;;12.10;10.27;;;20.20;38.50;;;;;;5006868;28;20539;-69
2022/08/27 02:32:15;;;;;;;12.50;9.60;;;20.20;38.30;;;;;;4992312;27;20565;-63
2022/08/27 02:34:44;;;;;;;11.17;9.97;;;20.20;38.30;;;;;;4984599;28;20537;-63
2022/08/27 02:37:11;;;;;;;14.93;9.30;;;20.20;38.30;;;;;;4992884;28;20522;-66
2022/08/27 02:39:38;;;;;;;15.33;10.20;;;20.20;38.30;;;;;;4985759;28;20461;-65
2022/08/27 02:42:05;;;;;;;12.77;9.50;;;20.20;38.50;;;;;;4980175;28;20469;-63
2022/08/27 02:44:34;;;;;;;12.67;9.43;;;20.20;38.30;;;;;;4985495;28;20484;-65
2022/08/27 02:47:02;;;;;;;13.23;10.20;;;20.20;38.40;;;;;;4999241;28;21168;-64
2022/08/27 02:49:29;;;;;;;12.47;10.40;;;20.20;38.20;;;;;;4985020;28;20461;-67
2022/08/27 02:51:58;;;;;;;13.50;10.40;;;20.20;38.30;;;;;;4985454;28;20465;-66
2022/08/27 02:54:26;;;;;;;12.90;10.00;;;20.20;38.50;;;;;;4985444;28;20485;-67
2022/08/27 02:56:54;;;;;;;13.07;10.37;;;20.20;38.50;;;;;;4982224;28;20461;-67
2022/08/27 02:59:22;;;;;;;11.80;8.97;;;20.20;38.60;;;;;;4984806;28;20936;-67
2022/08/27 03:01:49;;;;;;;11.63;9.60;;;20.20;38.60;;;;;;4986130;27;20554;-64
2022/08/27 03:04:17;;;;;;;12.07;10.20;;;20.20;38.70;;;;;;4990212;28;20528;-63
2022/08/27 03:06:44;;;;;;;12.00;10.13;;;20.20;38.70;;;;;;4986086;28;20479;-64
2022/08/27 03:09:13;;;;;;;12.47;10.40;;;20.20;38.70;;;;;;4980197;28;20501;-64
2022/08/27 03:11:41;;;;;;;12.33;10.87;;;20.20;38.90;;;;;;4983849;28;20461;-66
2022/08/27 03:14:08;;;;;;;14.17;10.50;;;20.20;39.00;;;;;;4984843;28;20579;-65
2022/08/27 03:16:36;;;;;;;12.50;11.00;;;20.30;39.00;;;;;;4991337;28;20466;-68
2022/08/27 03:19:05;;;;;;;12.30;10.30;;;20.30;38.90;;;;;;4986044;28;20457;-65
2022/08/27 03:21:32;;;;;;;12.20;9.90;;;20.30;38.90;;;;;;4989946;28;20468;-66
2022/08/27 03:24:00;;;;;;;14.40;10.67;;;20.30;39.10;;;;;;5006938;28;21015;-66
2022/08/27 03:26:30;;;;;;;14.90;10.47;;;20.30;39.00;;;;;;4983024;28;20473;-65
2022/08/27 03:28:57;;;;;;;14.97;11.43;;;20.30;39.20;;;;;;4983998;28;20487;-64
2022/08/27 03:31:26;;;;;;;12.40;10.43;;;20.30;39.30;;;;;;4992721;27;20516;-67
2022/08/27 03:33:55;;;;;;;11.47;10.13;;;20.20;39.30;;;;;;4981463;28;20519;-64
2022/08/27 03:36:22;;;;;;;14.00;10.20;;;20.20;39.40;;;;;;4982982;28;20464;-64
2022/08/27 03:38:49;;;;;;;10.73;8.63;;;20.20;39.60;;;;;;4986137;28;20564;-65
2022/08/27 03:41:16;;;;;;;12.33;9.80;;;20.10;39.70;;;;;;4987456;28;20469;-65
2022/08/27 03:43:46;;;;;;;12.63;10.30;;;20.20;39.70;;;;;;4982640;28;20487;-64
2022/08/27 03:46:13;;;;;;;12.93;10.03;;;20.20;39.80;;;;;;4981356;28;20465;-66
2022/08/27 03:48:41;;;;;;;13.10;10.60;;;20.20;39.70;;;;;;4985800;28;20574;-63
2022/08/27 03:51:10;;;;;;;12.03;10.20;;;20.20;39.80;;;;;;4983954;28;20502;-64
2022/08/27 03:53:39;;;;;;;13.70;10.23;;;20.10;39.70;;;;;;4981081;28;20477;-65
2022/08/27 03:56:07;;;;;;;12.80;10.10;;;20.20;39.80;;;;;;4983011;28;20540;-63
2022/08/27 03:58:35;;;;;;;15.40;10.73;;;20.20;40.00;;;;;;4981356;28;20453;-67
2022/08/27 04:01:04;;;;;;;13.40;10.20;;;20.10;40.00;;;;;;4978754;27;20493;-66
2022/08/27 04:03:32;;;;;;;12.73;10.80;;;20.10;40.10;;;;;;4987248;28;21124;-66
2022/08/27 04:05:59;;;;;;;14.97;10.03;;;20.10;40.00;;;;;;4980674;28;20488;-64
2022/08/27 04:08:27;;;;;;;14.37;10.17;;;20.10;40.00;;;;;;4980909;28;20496;-68
2022/08/27 04:10:55;;;;;;;12.80;9.40;;;20.10;40.10;;;;;;4980320;28;20492;-66
2022/08/27 04:13:23;;;;;;;12.80;10.50;;;20.10;40.00;;;;;;4981379;28;20552;-64
2022/08/27 04:15:52;;;;;;;11.23;9.43;;;20.10;40.00;;;;;;4986003;28;20464;-68
2022/08/27 04:18:21;;;;;;;14.70;10.83;;;20.00;40.10;;;;;;4986927;28;20462;-66
2022/08/27 04:20:51;;;;;;;11.27;9.67;;;20.10;40.10;;;;;;4984871;28;20639;-63
2022/08/27 04:23:18;;;;;;;13.40;10.13;;;20.10;40.00;;;;;;4982468;28;20493;-66
2022/08/27 04:25:45;;;;;;;12.00;10.20;;;20.10;39.80;;;;;;4990755;28;20567;-66
2022/08/27 04:28:13;;;;;;;14.20;9.70;;;20.10;40.50;;;;;;4990201;28;20461;-66
2022/08/27 04:30:41;;;;;;;12.30;9.93;;;20.10;39.80;;;;;;4986084;27;20472;-62
2022/08/27 04:33:08;;;;;;;19.43;10.53;;;20.10;39.80;;;;;;4983540;28;20464;-63
2022/08/27 04:35:37;;;;;;;11.10;9.70;;;20.10;39.70;;;;;;4982551;28;20564;-67
2022/08/27 04:38:04;;;;;;;11.27;8.80;;;20.10;39.80;;;;;;4986178;28;20465;-64
2022/08/27 04:43:14;;;;;;;13.00;9.53;;;20.10;39.80;;;;;;4979368;28;20987;-65
2022/08/27 04:45:44;;;;;;;11.50;9.37;;;20.10;39.90;;;;;;4979791;28;20476;-63
2022/08/27 04:48:12;;;;;;;13.00;10.37;;;20.10;39.90;;;;;;4986118;28;20457;-68
2022/08/27 04:50:42;;;;;;;12.60;10.13;;;20.10;40.00;;;;;;4983554;28;20497;-66
2022/08/27 04:53:10;;;;;;;12.13;10.03;;;20.20;40.10;;;;;;4983609;28;20543;-66
2022/08/27 04:55:42;;;;;;;11.60;9.33;;;20.20;39.90;;;;;;4980866;28;20477;-65
2022/08/27 04:58:10;;;;;;;10.00;8.60;;;20.20;40.10;;;;;;4983095;28;20539;-65
2022/08/27 05:00:42;;;;;;;11.80;10.00;;;20.20;40.10;;;;;;4982215;28;21094;-64
2022/08/27 05:03:09;;;;;;;12.30;9.53;;;20.20;40.10;;;;;;4983015;28;20492;-65
2022/08/27 05:05:36;;;;;;;11.10;8.90;;;20.20;39.70;;;;;;4983362;28;20484;-63
2022/08/27 05:08:06;;;;;;;15.00;9.50;;;20.30;39.70;;;;;;4982332;28;20556;-66
2022/08/27 05:10:40;;;;;;;14.13;8.13;;;20.30;39.60;;;;;;4980399;28;20475;-66
2022/08/27 05:13:08;;;;;;;10.77;9.40;;;20.30;39.50;;;;;;4979190;28;20463;-66
2022/08/27 05:15:35;;;;;;;11.80;9.17;;;20.40;39.30;;;;;;4979578;28;20590;-67
2022/08/27 05:18:02;;;;;;;11.53;9.67;;;20.50;39.20;;;;;;4981399;28;21177;-65
2022/08/27 05:20:31;;;;;;;11.70;9.60;;;20.60;39.00;;;;;;4982709;28;20465;-68
2022/08/27 05:22:58;;;;;;;12.10;9.57;;;20.60;38.80;;;;;;4976703;28;20469;-65
2022/08/27 05:25:27;;;;;;;10.47;8.67;;;20.70;38.70;;;;;;4979742;28;20488;-63
2022/08/27 05:27:54;;;;;;;12.00;8.27;;;20.80;38.40;;;;;;4981597;28;20468;-66
2022/08/27 05:30:21;;;;;;;13.80;10.10;;;20.90;38.10;;;;;;4979504;28;21125;-68
2022/08/27 05:32:48;;;;;;;10.70;8.60;;;21.00;37.90;;;;;;4985720;28;21395;-67
2022/08/27 05:35:15;;;;;;;11.67;8.27;;;21.10;37.70;;;;;;4995533;28;20526;-63
2022/08/27 05:37:42;;;;;;;11.77;8.47;;;21.20;37.50;;;;;;4986869;28;21129;-64
2022/08/27 05:40:10;;;;;;;11.40;9.23;;;21.30;37.40;;;;;;4987092;28;20493;-65
2022/08/27 05:42:38;;;;;;;12.90;10.97;;;21.50;37.30;;;;;;4984671;28;21030;-64
2022/08/27 05:45:06;;;;;;;13.80;10.77;;;21.50;36.40;;;;;;4981604;28;20484;-64
2022/08/27 05:47:33;;;;;;;13.47;10.83;;;21.60;35.40;;;;;;4983931;28;20518;-64
2022/08/27 05:50:00;;;;;;;13.30;10.70;;;21.70;35.30;;;;;;4986213;28;20518;-63
2022/08/27 05:52:27;;;;;;;12.60;10.37;;;21.60;35.10;;;;;;4985317;28;20514;-67
2022/08/27 05:54:54;;;;;;;12.60;10.47;;;21.70;35.50;;;;;;4983864;28;20481;-64
2022/08/27 05:57:21;;;;;;;14.90;11.10;;;21.70;34.60;;;;;;4980345;28;20459;-68
2022/08/27 06:02:36;;;;;;;15.43;12.70;;;21.70;34.20;;;;;;4985588;28;20475;-66
2022/08/27 06:05:04;;;;;;;15.17;12.37;;;21.70;33.90;;;;;;4983876;28;20520;-64
2022/08/27 06:07:33;;;;;;;15.00;12.47;;;21.80;33.70;;;;;;4985633;28;20556;-62
2022/08/27 06:10:00;;;;;;;16.53;12.37;;;21.80;33.40;;;;;;4981437;28;20556;-66
2022/08/27 06:12:28;;;;;;;16.67;13.10;;;21.80;33.40;;;;;;4986862;28;21013;-62
2022/08/27 06:14:56;;;;;;;20.20;13.03;;;21.80;33.20;;;;;;4983659;28;20501;-65
2022/08/27 06:17:23;;;;;;;20.53;13.03;;;21.80;33.30;;;;;;4984090;28;20488;-64
2022/08/27 06:19:50;;;;;;;13.83;11.23;;;21.80;33.20;;;;;;4987453;28;20452;-64
2022/08/27 06:22:17;;;;;;;14.50;12.30;;;21.80;32.90;;;;;;4986415;28;20952;-65
2022/08/27 06:24:44;;;;;;;17.63;13.50;;;21.90;33.10;;;;;;4982156;28;20476;-62
2022/08/27 06:27:13;;;;;;;18.63;15.10;;;21.80;33.10;;;;;;4987357;28;20465;-66
2022/08/27 06:29:41;;;;;;;19.40;15.47;;;21.80;33.00;;;;;;4994848;28;20460;-63
2022/08/27 06:32:11;;;;;;;18.73;13.93;;;21.80;32.90;;;;;;4985643;28;20491;-62
2022/08/27 06:34:39;;;;;;;20.30;17.53;;;21.80;33.00;;;;;;4980823;28;20485;-63
2022/08/27 06:37:06;;;;;;;24.90;19.93;;;21.80;33.00;;;;;;4980569;28;20472;-63
2022/08/27 06:39:34;;;;;;;23.57;18.87;;;21.90;33.00;;;;;;4982877;28;20465;-62
2022/08/27 06:42:02;;;;;;;26.53;20.00;;;21.90;33.10;;;;;;4986549;28;20843;-65
2022/08/27 06:44:29;;;;;;;28.37;19.80;;;21.90;33.00;;;;;;5018877;28;21063;-62
2022/08/27 06:46:56;;;;;;;24.10;19.47;;;21.80;32.90;;;;;;5017015;28;20489;-66
2022/08/27 06:49:24;;;;;;;23.13;18.53;;;21.90;33.00;;;;;;4984505;28;20885;-61
2022/08/27 06:51:51;;;;;;;24.80;18.47;;;22.00;33.00;;;;;;4984806;28;20465;-63
2022/08/27 06:54:18;;;;;;;21.20;17.80;;;22.00;32.90;;;;;;4984117;28;20628;-63
2022/08/27 06:56:46;;;;;;;23.67;18.17;;;22.20;32.70;;;;;;4986671;28;21075;-64
2022/08/27 06:59:15;;;;;;;22.93;17.03;;;22.30;32.00;;;;;;4994492;28;20562;-64
2022/08/27 07:01:44;;;;;;;24.63;19.47;;;22.40;31.80;;;;;;4989521;28;20912;-65
2022/08/27 07:04:13;;;;;;;24.83;18.13;;;22.50;31.60;;;;;;4986946;28;20530;-65
2022/08/27 07:06:42;;;;;;;25.63;18.57;;;22.50;31.50;;;;;;4993850;28;20485;-63
2022/08/27 07:09:09;;;;;;;24.47;20.77;;;22.60;31.50;;;;;;4999896;28;20460;-63
2022/08/27 07:11:37;;;;;;;19.40;17.17;;;22.60;31.60;;;;;;5004724;28;20536;-65
2022/08/27 07:14:05;;;;;;;29.73;22.47;;;22.70;31.40;;;;;;4988477;28;20968;-63
2022/08/27 07:16:32;;;;;;;30.13;26.23;;;22.80;31.20;;;;;;5011428;22;20457;-62
2022/08/27 07:19:03;;;;;;;29.73;25.47;;;22.80;31.00;;;;;;5064422;28;20550;-62
2022/08/27 07:21:31;;;;;;;45.33;28.90;;;22.90;30.80;;;;;;5066264;28;20457;-63
2022/08/27 07:24:03;;;;;;;39.40;28.67;;;23.00;30.50;;;;;;5064884;28;20461;-62
2022/08/27 07:26:31;;;;;;;30.27;24.30;;;23.10;30.40;;;;;;5064250;28;20485;-68
2022/08/27 07:28:59;;;;;;;29.07;23.50;;;23.10;30.30;;;;;;5068458;28;20452;-68
2022/08/27 07:31:26;;;;;;;35.73;27.13;;;23.10;29.90;;;;;;5066561;28;20493;-62
2022/08/27 07:33:53;;;;;;;39.50;29.77;;;23.20;29.80;;;;;;5061633;28;20991;-68
2022/08/27 07:36:21;;;;;;;41.90;29.73;;;23.30;29.90;;;;;;5063108;28;20533;-65
2022/08/27 07:38:47;;;;;;;41.33;31.67;;;23.40;29.50;;;;;;5063113;28;20461;-62
2022/08/27 07:41:17;;;;;;;35.27;26.37;;;23.40;28.80;;;;;;5064247;28;20544;-62
2022/08/27 07:46:28;;;;;;;30.27;25.47;;;23.70;28.30;;;;;;5063461;28;20479;-63
2022/08/27 07:48:56;;;;;;;35.00;24.60;;;23.90;27.90;;;;;;5066943;28;20457;-63
2022/08/27 07:51:25;;;;;;;34.13;25.73;;;24.10;27.30;;;;;;5062463;28;20461;-65
2022/08/27 07:53:52;;;;;;;35.57;25.90;;;24.30;26.90;;;;;;5063676;28;20981;-66
2022/08/27 07:56:22;;;;;;;35.13;27.07;;;24.40;26.50;;;;;;5059498;28;20458;-62
2022/08/27 07:58:48;;;;;;;31.53;25.93;;;24.40;26.20;;;;;;5067638;28;20521;-65
2022/08/27 08:01:15;;;;;;;34.60;25.80;;;24.40;26.10;;;;;;5067481;28;20477;-64
2022/08/27 08:03:43;;;;;;;34.60;26.63;;;24.40;25.90;;;;;;5058177;28;20464;-65
2022/08/27 08:06:12;;;;;;;32.40;25.37;;;24.30;25.70;;;;;;5065164;28;20473;-65
2022/08/27 08:08:40;;;;;;;31.30;25.63;;;24.20;26.30;;;;;;5064858;28;20856;-59
2022/08/27 08:11:08;;;;;;;31.27;25.13;;;24.10;26.00;;;;;;5065404;28;20837;-59
2022/08/27 08:13:36;;;;;;;29.73;25.27;;;24.10;26.30;;;;;;5065470;28;20461;-59
2022/08/27 08:16:05;;;;;;;32.60;25.83;;;24.00;26.30;;;;;;5065102;28;20450;-59
2022/08/27 08:18:32;;;;;;;33.77;26.70;;;24.00;26.70;;;;;;5062243;28;20564;-59
2022/08/27 08:21:03;;;;;;;33.00;26.97;;;24.10;27.00;;;;;;5062015;28;20465;-59
2022/08/27 08:23:31;;;;;;;32.43;26.37;;;24.20;26.70;;;;;;5065812;28;20453;-59
2022/08/27 08:25:58;;;;;;;37.43;26.40;;;24.40;26.20;;;;;;5063012;28;20504;-58
2022/08/27 08:28:26;;;;;;;33.17;25.93;;;24.60;25.30;;;;;;5064062;28;20488;-59
2022/08/27 08:30:55;;;;;;;33.33;25.87;;;24.70;24.70;;;;;;5065125;28;20479;-59
2022/08/27 08:33:22;;;;;;;32.27;24.33;;;24.70;24.90;;;;;;5063147;28;20835;-59
2022/08/27 08:35:49;;;;;;;33.87;26.20;;;24.80;24.60;;;;;;5061901;28;21190;-58
2022/08/27 08:38:16;;;;;;;36.63;25.47;;;24.80;24.10;;;;;;5064767;28;20503;-60
2022/08/27 08:40:45;;;;;;;32.97;25.27;;;24.80;24.50;;;;;;5063596;28;20456;-59
2022/08/27 08:43:25;;;;;;;32.43;25.50;;;24.80;24.10;;;;;;5062660;28;20450;-59
2022/08/27 08:45:52;;;;;;;30.30;25.70;;;24.70;24.30;;;;;;5063704;28;20471;-60
2022/08/27 08:48:23;;;;;;;33.80;25.53;;;24.70;24.10;;;;;;5063647;28;20485;-59
2022/08/27 08:50:55;;;;;;;32.13;26.23;;;24.60;23.90;;;;;;5060886;28;20464;-59
2022/08/27 08:53:32;;;;;;;27.73;23.10;;;24.70;23.70;;;;;;5058938;28;21017;-59
2022/08/27 08:56:03;;;;;;;29.63;24.40;;;24.80;23.60;;;;;;5067437;28;20445;-60
2022/08/27 08:58:37;;;;;;;29.93;23.97;;;25.10;23.60;;;;;;5060562;28;20629;-58
2022/08/27 09:01:06;;;;;;;31.00;25.13;;;25.40;22.30;;;;;;5063424;28;20520;-59
2022/08/27 09:03:39;;;;;;;27.13;22.83;;;25.60;21.60;;;;;;5059005;28;20977;-59
2022/08/27 09:06:10;;;;;;;28.70;23.60;;;25.60;21.60;;;;;;5061503;28;20484;-59
2022/08/27 09:08:39;;;;;;;29.80;24.63;;;25.70;21.40;;;;;;5061773;28;20495;-60
2022/08/27 09:11:15;;;;;;;27.83;22.70;;;25.70;21.20;;;;;;5060518;28;20477;-60
2022/08/27 09:13:48;;;;;;;26.90;22.60;;;25.80;21.00;;;;;;5067112;28;20555;-59
2022/08/27 09:16:15;;;;;;;29.23;24.43;;;25.70;20.80;;;;;;5057522;28;20536;-59
2022/08/27 09:18:44;;;;;;;28.17;23.00;;;25.70;21.10;;;;;;5065163;28;20487;-60
2022/08/27 09:21:21;;;;;;;26.00;21.30;;;25.60;21.50;;;;;;5068947;28;20480;-60
2022/08/27 09:24:00;;;;;;;24.67;18.97;;;25.50;22.10;;;;;;5061745;28;20471;-61
2022/08/27 09:26:30;;;;;;;31.63;20.10;;;25.40;22.50;;;;;;5067034;28;20515;-64
2022/08/27 09:29:18;;;;;;;32.00;21.20;;;25.20;23.80;;;;;;5062960;28;20553;-65
2022/08/27 09:31:48;;;;;;;24.80;20.03;;;25.10;25.30;;;;;;5078636;22;20544;-62
2022/08/27 09:34:16;;;;;;;25.97;20.53;;;24.80;25.80;;;;;;5105210;28;20470;-63
2022/08/27 09:36:59;;;;;;;25.47;19.27;;;24.50;26.50;;;;;;5106883;28;20451;-62
2022/08/27 09:39:35;;;;;;;22.90;18.67;;;24.20;27.20;;;;;;5103174;28;20463;-62
2022/08/27 09:42:04;;;;;;;18.67;16.50;;;24.00;27.70;;;;;;5088311;28;23122;-66
2022/08/27 09:44:32;;;;;;;18.90;15.00;;;23.70;28.20;;;;;;5077868;28;20461;-68
2022/08/27 09:47:01;;;;;;;15.30;12.63;;;23.50;29.40;;;;;;5081991;28;20480;-66
2022/08/27 09:49:33;;;;;;;18.47;15.00;;;23.30;29.20;;;;;;5082529;28;20464;-72
2022/08/27 09:52:00;;;;;;;23.57;16.90;;;23.10;30.10;;;;;;5082284;28;21007;-63
2022/08/27 09:54:44;;;;;;;22.33;16.23;;;23.10;31.20;;;;;;5082824;28;20511;-66
2022/08/27 09:57:13;;;;;;;15.60;12.90;;;22.90;32.10;;;;;;5082113;28;20458;-69
2022/08/27 09:59:51;;;;;;;16.77;13.53;;;22.70;32.10;;;;;;5076736;28;20940;-75
2022/08/27 10:02:20;;;;;;;19.70;15.67;;;22.60;31.90;;;;;;5078879;28;20468;-67
2022/08/27 10:04:50;;;;;;;19.90;16.90;;;22.50;32.00;;;;;;5078995;28;20832;-68
2022/08/27 10:07:24;;;;;;;19.47;15.00;;;22.40;32.40;;;;;;5080420;28;20485;-67
2022/08/27 10:09:56;;;;;;;16.33;14.43;;;22.40;33.00;;;;;;5079634;28;20479;-66
2022/08/27 10:12:31;;;;;;;16.20;13.63;;;22.40;33.20;;;;;;5082860;28;20482;-63
2022/08/27 10:15:00;;;;;;;21.17;14.83;;;22.40;33.00;;;;;;5078001;28;20583;-64
2022/08/27 10:17:37;;;;;;;17.97;15.20;;;22.50;33.90;;;;;;5084725;28;20448;-70
2022/08/27 10:20:17;;;;;;;19.20;16.40;;;22.60;33.90;;;;;;5081805;28;20460;-67
2022/08/27 10:22:51;;;;;;;19.50;17.20;;;22.70;33.90;;;;;;5085955;28;20475;-66
2022/08/27 10:25:28;;;;;;;18.33;14.37;;;22.70;34.00;;;;;;5083104;28;20504;-67
2022/08/27 10:28:05;;;;;;;19.50;15.40;;;22.70;33.80;;;;;;5079204;28;20476;-68
2022/08/27 10:30:47;;;;;;;18.37;14.70;;;22.70;32.80;;;;;;5082981;28;20464;-69
2022/08/27 10:33:20;;;;;;;18.30;13.80;;;22.80;32.00;;;;;;5102377;28;20464;-69
2022/08/27 10:35:58;;;;;;;15.60;12.60;;;22.80;31.20;;;;;;5103044;28;20459;-64
2022/08/27 10:38:33;;;;;;;16.07;12.73;;;22.70;31.40;;;;;;5103590;27;20541;-69
2022/08/27 10:41:07;;;;;;;16.90;13.93;;;22.60;32.10;;;;;;5096201;27;20462;-68
2022/08/27 10:43:55;;;;;;;16.47;13.83;;;22.60;32.20;;;;;;5101314;28;20455;-68
2022/08/27 10:46:45;;;;;;;17.37;12.93;;;22.60;32.40;;;;;;5101773;27;20664;-66
2022/08/27 10:49:18;;;;;;;17.03;12.23;;;22.60;32.80;;;;;;5099105;28;20472;-69
2022/08/27 10:51:53;;;;;;;15.20;12.30;;;22.60;33.10;;;;;;5101753;28;20486;-69
2022/08/27 10:54:27;;;;;;;17.47;14.07;;;22.60;32.70;;;;;;5105831;28;20459;-69
2022/08/27 10:57:00;;;;;;;15.50;13.20;;;22.60;32.90;;;;;;5101879;27;20941;-70
2022/08/27 10:59:37;;;;;;;15.93;13.77;;;22.60;32.50;;;;;;5106247;27;20483;-68
2022/08/27 11:02:16;;;;;;;17.53;13.40;;;22.60;32.90;;;;;;5096840;27;20487;-68
2022/08/27 11:04:49;;;;;;;19.33;14.83;;;22.50;33.10;;;;;;5100905;27;20454;-67
2022/08/27 11:07:23;;;;;;;17.43;14.20;;;22.60;33.60;;;;;;5104037;27;20471;-66
2022/08/27 11:09:54;;;;;;;15.47;13.00;;;22.60;33.70;;;;;;5099108;28;20455;-70
2022/08/27 11:12:26;;;;;;;15.23;11.57;;;22.60;33.10;;;;;;5102250;27;20471;-72
2022/08/27 11:14:57;;;;;;;14.30;10.47;;;22.60;31.80;;;;;;5100944;28;20466;-68
2022/08/27 11:17:30;;;;;;;14.17;10.87;;;22.70;32.10;;;;;;5103681;22;20508;-74
2022/08/27 11:20:03;;;;;;;16.13;13.30;;;22.70;32.90;;;;;;5094636;28;20458;-70
2022/08/27 11:22:35;;;;;;;18.03;13.13;;;22.80;33.70;;;;;;5098334;27;20484;-70
2022/08/27 11:25:10;;;;;;;17.33;14.70;;;22.80;33.10;;;;;;5096882;28;20482;-69
2022/08/27 11:27:39;;;;;;;17.93;14.53;;;22.80;31.60;;;;;;5089929;28;20480;-70
2022/08/27 11:30:09;;;;;;;18.60;14.40;;;22.90;32.00;;;;;;5084071;28;20959;-70
2022/08/27 11:32:48;;;;;;;18.10;15.77;;;23.00;32.00;;;;;;5082496;28;20515;-71
2022/08/27 11:35:21;;;;;;;15.67;11.60;;;23.00;32.10;;;;;;5080530;28;20938;-70
2022/08/27 11:38:10;;;;;;;15.40;12.03;;;23.10;32.60;;;;;;5084582;28;20524;-70
2022/08/27 11:40:48;;;;;;;14.63;12.20;;;23.20;32.60;;;;;;5075640;28;20483;-68
2022/08/27 11:43:17;;;;;;;16.80;15.00;;;23.30;32.70;;;;;;5078268;28;20453;-65
2022/08/27 11:45:55;;;;;;;19.90;15.37;;;23.40;32.90;;;;;;5071981;28;20467;-67
2022/08/27 11:48:24;;;;;;;17.50;14.13;;;23.50;33.00;;;;;;5075894;28;20480;-67
2022/08/27 11:50:57;;;;;;;16.27;13.00;;;23.60;32.70;;;;;;5067771;28;20469;-66
2022/08/27 11:53:28;;;;;;;12.90;8.63;;;23.70;32.10;;;;;;5078928;28;20465;-65
2022/08/27 11:55:55;;;;;;;10.30;7.47;;;23.80;30.90;;;;;;5080626;28;20465;-67
2022/08/27 11:58:33;;;;;;;9.37;6.63;;;24.00;29.00;;;;;;5078333;28;20566;-69
2022/08/27 12:01:01;;;;;;;8.07;5.87;;;24.00;28.50;;;;;;5069871;28;20824;-69
2022/08/27 12:03:31;;;;;;;8.30;5.37;;;24.10;27.90;;;;;;5061155;28;20597;-67
2022/08/27 12:06:10;;;;;;;7.30;5.00;;;24.10;27.50;;;;;;5072823;22;20989;-69
2022/08/27 12:08:38;;;;;;;5.87;3.73;;;23.90;27.30;;;;;;5098056;28;20851;-66
2022/08/27 12:11:20;;;;;;;6.00;3.73;;;23.80;26.00;;;;;;5105839;27;20469;-64
2022/08/27 12:13:55;;;;;;;5.80;3.43;;;23.60;25.80;;;;;;5097653;28;20447;-67
2022/08/27 12:16:32;;;;;;;5.63;3.20;;;23.50;25.80;;;;;;5082417;27;20479;-71
2022/08/27 12:19:13;;;;;;;5.60;3.53;;;23.30;26.70;;;;;;5098937;27;20549;-71
2022/08/27 12:21:51;;;;;;;6.10;3.57;;;23.30;26.90;;;;;;5101290;28;20462;-70
2022/08/27 12:24:45;;;;;;;5.53;3.47;;;23.30;26.80;;;;;;5100308;27;20481;-71
2022/08/27 12:27:30;;;;;;;6.00;3.53;;;23.40;26.40;;;;;;5099831;27;20482;-74
2022/08/27 12:29:59;;;;;;;6.10;3.17;;;23.50;26.80;;;;;;5099943;28;20966;-71
2022/08/27 12:32:29;;;;;;;6.93;4.00;;;23.60;26.50;;;;;;5101840;28;20556;-70
2022/08/27 12:35:10;;;;;;;5.60;3.70;;;23.80;26.40;;;;;;5099871;27;20459;-69
2022/08/27 12:37:40;;;;;;;6.40;3.40;;;23.80;25.90;;;;;;5099257;28;20455;-70
2022/08/27 12:40:23;;;;;;;5.97;3.63;;;23.90;26.90;;;;;;5100387;28;20515;-68
2022/08/27 12:42:50;;;;;;;7.03;3.60;;;24.10;26.60;;;;;;5098808;28;20959;-69
2022/08/27 12:45:22;;;;;;;6.03;3.47;;;24.10;26.20;;;;;;5098684;28;20463;-72
2022/08/27 12:47:49;;;;;;;6.40;3.87;;;24.10;26.40;;;;;;5102555;28;21029;-73
2022/08/27 12:50:22;;;;;;;5.43;3.77;;;24.20;25.90;;;;;;5101343;28;20464;-75
2022/08/27 12:53:08;;;;;;;5.50;3.73;;;24.30;25.70;;;;;;5103379;28;20465;-72